Time;durP1;ratioP1;P1;durP2;ratioP2;P2;SDS_P1;SDS_P2;PMS_P1;PMS_P2;Temp;Humidity;BMP_temperature;BMP_pressure;BME280_temperature;BME280_humidity;BME280_pressure;Samples;Min_cycle;Max_cycle;Signal;HPM_P1;HPM_P2
2021/11/19 00:01:26;;;;;;;19.27;13.97;;;;;;;6.74;89.47;95778.41;5074736;28;20919;-85
2021/11/19 00:03:53;;;;;;;20.00;13.70;;;;;;;6.70;89.10;95777.75;5075317;28;20460;-85
2021/11/19 00:06:21;;;;;;;21.77;14.00;;;;;;;6.63;89.86;95781.59;5075126;28;20524;-86
2021/11/19 00:08:50;;;;;;;20.73;13.43;;;;;;;6.66;90.44;95786.66;5074917;28;20519;-85
2021/11/19 00:11:30;;;;;;;24.20;13.60;;;;;;;6.70;89.78;95779.50;5074111;28;20432;-85
2021/11/19 00:13:58;;;;;;;22.97;13.47;;;;;;;6.75;89.43;95780.94;5074963;28;20559;-85
2021/11/19 00:16:27;;;;;;;20.63;12.60;;;;;;;6.79;88.66;95787.66;5074727;28;20448;-85
2021/11/19 00:18:55;;;;;;;16.70;12.33;;;;;;;6.84;88.18;95785.63;5075464;28;20485;-85
2021/11/19 00:21:23;;;;;;;19.20;11.80;;;;;;;6.90;87.98;95789.66;5074453;28;20923;-85
2021/11/19 00:23:52;;;;;;;17.30;11.60;;;;;;;6.95;87.78;95782.44;5074344;28;20451;-85
2021/11/19 00:26:21;;;;;;;22.27;13.67;;;;;;;6.95;86.99;95779.00;5074494;28;20425;-85
2021/11/19 00:28:49;;;;;;;19.40;11.60;;;;;;;6.92;87.58;95786.97;5074510;28;20446;-85
2021/11/19 00:31:17;;;;;;;17.10;11.13;;;;;;;6.91;88.06;95785.28;5074571;28;20536;-85
2021/11/19 00:33:45;;;;;;;21.13;12.37;;;;;;;6.85;88.15;95791.69;5074050;28;20504;-85
2021/11/19 00:36:15;;;;;;;19.60;12.20;;;;;;;6.86;87.11;95790.75;5074204;28;20998;-85
2021/11/19 00:38:44;;;;;;;17.80;10.70;;;;;;;6.86;87.88;95792.53;5074228;28;20521;-85
2021/11/19 00:41:13;;;;;;;19.57;13.17;;;;;;;6.90;86.80;95786.22;5039024;28;20498;-84
2021/11/19 00:43:41;;;;;;;21.40;13.30;;;;;;;6.91;87.24;95780.91;5074449;28;20467;-85
2021/11/19 00:46:09;;;;;;;17.50;10.27;;;;;;;6.84;86.71;95787.41;5073924;28;20434;-85
2021/11/19 00:48:37;;;;;;;22.17;13.83;;;;;;;6.85;86.25;95786.47;5073575;28;20958;-85
2021/11/19 00:51:07;;;;;;;16.03;11.93;;;;;;;6.82;86.38;95781.44;5074113;28;20472;-85
2021/11/19 00:53:36;;;;;;;17.87;11.93;;;;;;;6.74;86.13;95784.47;5073891;28;21076;-85
2021/11/19 00:56:04;;;;;;;18.40;11.43;;;;;;;6.73;86.33;95795.81;5075025;28;20459;-85
2021/11/19 00:58:34;;;;;;;13.97;10.53;;;;;;;6.80;86.57;95791.94;5073926;28;20455;-85
2021/11/19 01:01:06;;;;;;;15.00;11.33;;;;;;;6.81;85.85;95793.63;5073973;28;20448;-85
2021/11/19 01:03:33;;;;;;;17.93;12.37;;;;;;;6.85;86.18;95796.91;5075726;28;20471;-85
2021/11/19 01:06:01;;;;;;;18.53;11.00;;;;;;;6.78;86.49;95788.59;5078006;28;20544;-85
2021/11/19 01:08:29;;;;;;;18.97;12.63;;;;;;;6.79;86.46;95787.66;5078092;28;20432;-85
2021/11/19 01:10:59;;;;;;;20.53;13.47;;;;;;;6.85;85.85;95794.28;5078090;28;20886;-85
2021/11/19 01:13:27;;;;;;;20.23;12.80;;;;;;;6.82;86.67;95790.09;5078240;28;20475;-85
2021/11/19 01:15:59;;;;;;;19.03;12.63;;;;;;;6.86;86.95;95792.53;5077700;28;20494;-85
2021/11/19 01:18:29;;;;;;;22.03;13.53;;;;;;;6.84;86.87;95785.63;5078286;28;20796;-85
2021/11/19 01:20:59;;;;;;;20.90;13.60;;;;;;;6.83;86.83;95794.38;5077456;28;20532;-84
2021/11/19 01:23:29;;;;;;;18.63;13.33;;;;;;;6.89;86.52;95787.13;5078145;28;20769;-85
2021/11/19 01:25:59;;;;;;;19.60;13.67;;;;;;;6.93;86.73;95796.47;5077595;28;20957;-85
2021/11/19 01:28:26;;;;;;;18.10;12.37;;;;;;;6.90;86.78;95786.22;5077907;28;20486;-85
2021/11/19 01:30:58;;;;;;;16.87;12.20;;;;;;;6.93;86.29;95792.09;5077720;28;20452;-85
2021/11/19 01:33:27;;;;;;;23.43;11.53;;;;;;;6.92;86.33;95789.56;5077397;28;20473;-85
2021/11/19 01:35:54;;;;;;;20.17;13.27;;;;;;;6.90;86.79;95789.66;5077647;28;20468;-85
2021/11/19 01:38:22;;;;;;;16.07;11.53;;;;;;;6.94;86.54;95790.31;5077925;28;20444;-85
2021/11/19 01:40:52;;;;;;;21.53;12.20;;;;;;;6.98;86.68;95786.66;5077075;28;20488;-85
2021/11/19 01:43:19;;;;;;;17.27;12.87;;;;;;;6.97;87.06;95783.19;5077229;28;20511;-85
2021/11/19 01:45:48;;;;;;;17.70;12.27;;;;;;;7.01;86.75;95789.06;5077400;28;20439;-85
2021/11/19 01:51:43;;;;;;;16.33;11.20;;;;;;;6.95;87.57;95785.06;5076404;28;20477;-85
2021/11/19 01:54:18;;;;;;;20.60;12.23;;;;;;;6.97;88.09;95777.13;5077112;28;20485;-85
2021/11/19 01:56:48;;;;;;;18.97;11.23;;;;;;;6.92;88.15;95776.53;5077224;28;20428;-85
2021/11/19 01:59:20;;;;;;;13.57;10.60;;;;;;;6.90;88.55;95765.34;5076705;28;20954;-85
2021/11/19 02:01:50;;;;;;;20.23;12.50;;;;;;;6.84;88.46;95767.38;5077127;28;20436;-85
2021/11/19 02:04:21;;;;;;;20.43;12.83;;;;;;;6.87;88.55;95770.72;5077080;28;20455;-85
2021/11/19 02:06:52;;;;;;;23.77;14.03;;;;;;;6.88;88.92;95775.03;5077102;28;20778;-85
2021/11/19 02:12:48;;;;;;;17.60;11.40;;;;;;;6.91;88.21;95764.41;5075661;28;20920;-85
2021/11/19 02:15:18;;;;;;;15.90;11.20;;;;;;;6.94;88.02;95764.22;5076404;28;20444;-85
2021/11/19 02:17:50;;;;;;;18.43;11.33;;;;;;;6.94;87.64;95772.06;5076743;28;20471;-85
2021/11/19 02:20:21;;;;;;;22.13;11.30;;;;;;;6.98;87.50;95763.16;5076880;28;20445;-85
2021/11/19 02:22:53;;;;;;;17.07;11.80;;;;;;;6.98;87.42;95769.22;5076675;28;20449;-85
2021/11/19 02:25:25;;;;;;;15.37;11.87;;;;;;;7.00;87.37;95759.53;5076270;28;20959;-85
2021/11/19 02:27:54;;;;;;;18.23;11.10;;;;;;;7.02;86.95;95762.06;5008379;28;20437;-85
2021/11/19 02:30:24;;;;;;;19.43;10.80;;;;;;;7.06;86.84;95758.34;5076263;28;20431;-85
2021/11/19 02:32:53;;;;;;;22.03;12.37;;;;;;;7.13;87.18;95755.28;5076172;28;20475;-85
2021/11/19 02:35:34;;;;;;;13.10;10.67;;;;;;;7.02;87.19;95747.25;5076346;28;20468;-85
2021/11/19 02:38:06;;;;;;;14.27;10.53;;;;;;;6.97;88.43;95751.03;5076156;28;20437;-85
2021/11/19 02:40:36;;;;;;;17.63;11.00;;;;;;;6.96;88.17;95752.81;5076611;28;20441;-85
2021/11/19 02:43:15;;;;;;;13.57;10.47;;;;;;;6.90;87.63;95747.06;5075848;28;20915;-85
2021/11/19 02:45:45;;;;;;;13.60;9.73;;;;;;;6.80;88.34;95758.03;5076042;28;20438;-85
2021/11/19 02:48:15;;;;;;;14.73;10.30;;;;;;;6.88;87.56;95765.44;5076087;28;20485;-85
2021/11/19 02:50:42;;;;;;;15.53;10.20;;;;;;;6.91;88.37;95769.63;5076038;28;20452;-85
2021/11/19 02:53:13;;;;;;;15.33;11.20;;;;;;;6.87;87.95;95757.69;5075838;28;20994;-85
2021/11/19 02:55:43;;;;;;;15.17;11.77;;;;;;;6.92;88.03;95766.09;5076094;28;20444;-85
2021/11/19 02:58:13;;;;;;;18.50;11.93;;;;;;;6.91;86.44;95757.44;5075832;28;20441;-85
2021/11/19 03:00:44;;;;;;;16.60;10.00;;;;;;;6.89;85.84;95761.03;5075926;28;20443;-85
2021/11/19 03:03:11;;;;;;;16.47;9.67;;;;;;;6.94;85.34;95765.09;5076014;28;20466;-85
2021/11/19 03:05:38;;;;;;;14.73;10.17;;;;;;;6.94;84.25;95764.22;5075534;28;20450;-85
2021/11/19 03:08:06;;;;;;;13.90;9.67;;;;;;;7.00;84.47;95758.69;5075448;28;20455;-85
2021/11/19 03:10:37;;;;;;;14.60;10.00;;;;;;;7.02;83.67;95756.84;5075451;28;20459;-85
2021/11/19 03:13:06;;;;;;;11.37;8.77;;;;;;;7.06;82.86;95753.13;5075651;28;20921;-85
2021/11/19 03:15:37;;;;;;;14.33;10.77;;;;;;;7.12;82.61;95755.38;5075860;28;20427;-85
2021/11/19 03:18:05;;;;;;;13.07;10.43;;;;;;;7.13;81.33;95759.66;5075306;28;20516;-85
2021/11/19 03:20:32;;;;;;;13.70;10.53;;;;;;;7.11;81.24;95751.91;5075758;28;20446;-85
2021/11/19 03:22:59;;;;;;;17.37;12.33;;;;;;;7.18;81.01;95749.78;5075516;28;20445;-85
2021/11/19 03:25:29;;;;;;;13.77;10.80;;;;;;;7.22;79.83;95753.91;5075071;28;20431;-85
2021/11/19 03:27:57;;;;;;;14.07;9.63;;;;;;;7.19;79.25;95753.25;5074830;28;20441;-85
2021/11/19 03:30:26;;;;;;;17.30;10.30;;;;;;;7.09;79.02;95752.94;5075005;28;20897;-85
2021/11/19 03:32:54;;;;;;;18.40;11.90;;;;;;;7.14;79.37;95750.91;5074598;28;20432;-85
2021/11/19 03:35:23;;;;;;;21.00;12.80;;;;;;;7.09;79.94;95753.78;5075378;28;20480;-85
2021/11/19 03:37:52;;;;;;;13.70;10.60;;;;;;;7.05;80.47;95754.88;5075489;28;20429;-84
2021/11/19 03:40:21;;;;;;;14.83;12.03;;;;;;;7.07;82.51;95754.81;5075050;28;20441;-85
2021/11/19 03:42:50;;;;;;;15.50;11.70;;;;;;;7.05;81.13;95756.66;5074830;28;20934;-85
2021/11/19 03:45:24;;;;;;;16.30;12.77;;;;;;;7.01;80.90;95758.59;5074803;28;20425;-85
2021/11/19 03:47:53;;;;;;;22.17;12.87;;;;;;;7.01;81.30;95770.81;5074846;28;20527;-85
2021/11/19 03:50:24;;;;;;;22.30;13.70;;;;;;;7.08;81.56;95766.91;5074943;28;20455;-85
2021/11/19 03:52:52;;;;;;;17.20;12.40;;;;;;;7.04;81.07;95754.97;5074670;28;20519;-85
2021/11/19 03:55:23;;;;;;;18.00;12.27;;;;;;;7.07;80.81;95754.81;5074469;28;20429;-85
2021/11/19 03:57:50;;;;;;;18.47;13.27;;;;;;;7.09;79.91;95753.78;5074520;28;20445;-84
2021/11/19 04:00:22;;;;;;;20.43;12.13;;;;;;;7.15;79.52;95744.75;5074767;28;20435;-84
2021/11/19 04:02:49;;;;;;;15.83;11.50;;;;;;;7.13;79.09;95744.84;5074535;28;20435;-85
2021/11/19 04:05:17;;;;;;;17.10;12.10;;;;;;;7.21;77.81;95752.22;5074358;28;20439;-86
2021/11/19 04:11:06;;;;;;;20.53;13.33;;;;;;;7.33;76.30;95751.53;5073197;28;20431;-85
2021/11/19 04:13:33;;;;;;;17.40;12.50;;;;;;;7.35;77.37;95741.00;5039109;28;20527;-85
2021/11/19 04:16:06;;;;;;;15.37;11.30;;;;;;;7.32;75.88;95739.41;5074142;28;20819;-85
2021/11/19 04:18:33;;;;;;;13.87;12.10;;;;;;;7.33;75.55;95743.69;5039441;28;20528;-84
2021/11/19 04:27:44;;;;;;;17.53;12.20;;;;;;;7.28;76.06;95740.53;5074018;28;20427;-90
2021/11/19 04:30:15;;;;;;;20.03;14.00;;;;;;;7.22;76.43;95742.63;5074971;28;20442;-88
2021/11/19 04:32:44;;;;;;;16.70;12.80;;;;;;;7.23;77.28;95742.56;4975090;28;20494;-91
2021/11/19 04:35:12;;;;;;;21.57;15.00;;;;;;;7.26;77.47;95744.16;5074614;28;20514;-90
2021/11/19 04:37:39;;;;;;;19.07;13.63;;;;;;;7.20;76.80;95742.72;5073579;28;20445;-84
2021/11/19 04:40:08;;;;;;;18.00;12.07;;;;;;;7.15;76.99;95739.53;5056036;28;20440;-85
2021/11/19 04:42:36;;;;;;;17.43;12.40;;;;;;;7.13;77.47;95742.22;5074165;28;20801;-86
2021/11/19 04:45:06;;;;;;;28.37;15.10;;;;;;;7.09;76.91;95745.94;5074541;28;20532;-86
2021/11/19 04:47:33;;;;;;;18.50;13.57;;;;;;;7.13;77.37;95744.00;5074256;28;20543;-86
2021/11/19 04:50:02;;;;;;;19.50;12.40;;;;;;;7.13;77.59;95744.00;5073864;28;20531;-88
2021/11/19 04:52:29;;;;;;;20.13;12.33;;;;;;;7.13;77.01;95741.41;5075164;28;20428;-84
2021/11/19 04:54:56;;;;;;;16.90;12.30;;;;;;;7.08;75.85;95746.03;5093733;28;20469;-86
2021/11/19 04:57:23;;;;;;;18.90;12.67;;;;;;;7.08;76.08;95741.66;5042393;28;20477;-86
2021/11/19 04:59:50;;;;;;;29.63;13.50;;;;;;;7.15;76.24;95742.97;5094389;28;20506;-86
2021/11/19 05:02:20;;;;;;;19.57;13.57;;;;;;;7.17;75.90;95740.28;5094227;28;20458;-86
2021/11/19 05:04:47;;;;;;;25.53;12.37;;;;;;;7.09;75.53;95737.28;5094420;28;20456;-85
2021/11/19 05:07:16;;;;;;;19.10;12.77;;;;;;;7.09;75.08;95740.72;5094038;28;20438;-85
2021/11/19 05:09:43;;;;;;;22.83;13.93;;;;;;;7.11;75.35;95741.47;5059042;28;20792;-87
2021/11/19 05:12:14;;;;;;;17.23;12.80;;;;;;;7.07;74.65;95749.59;5093937;28;20464;-86
2021/11/19 05:14:41;;;;;;;15.93;10.70;;;;;;;7.01;74.70;95756.00;5094269;28;20482;-86
2021/11/19 05:17:10;;;;;;;19.33;12.93;;;;;;;7.02;74.80;95759.44;5094643;28;20447;-87
2021/11/19 05:19:38;;;;;;;16.03;11.33;;;;;;;7.01;73.81;95756.00;5094020;28;20440;-86
2021/11/19 05:22:06;;;;;;;18.63;12.60;;;;;;;7.02;74.35;95757.69;5094023;28;20458;-85
2021/11/19 05:24:35;;;;;;;14.73;10.83;;;;;;;7.07;73.43;95755.63;5094405;28;20518;-86
2021/11/19 05:27:02;;;;;;;20.00;12.53;;;;;;;7.06;73.89;95755.72;5093932;28;20452;-86
2021/11/19 05:29:29;;;;;;;19.57;12.23;;;;;;;7.06;74.06;95766.16;5094495;28;20449;-86
2021/11/19 05:31:56;;;;;;;16.20;11.87;;;;;;;7.07;73.30;95760.03;5094148;28;20432;-86
2021/11/19 05:34:24;;;;;;;19.07;12.23;;;;;;;7.12;73.38;95755.38;5093572;28;21053;-85
2021/11/19 05:36:51;;;;;;;16.10;13.40;;;;;;;7.13;72.83;95755.28;5094175;28;20463;-85
2021/11/19 05:39:19;;;;;;;19.07;11.50;;;;;;;7.10;72.38;95765.06;5093920;28;20527;-86
2021/11/19 05:41:48;;;;;;;13.53;10.33;;;;;;;7.10;71.92;95763.28;5094927;28;20481;-86
2021/11/19 05:44:15;;;;;;;14.10;11.07;;;;;;;7.13;71.88;95767.50;5094308;28;20933;-86
2021/11/19 05:46:43;;;;;;;12.40;9.60;;;;;;;7.11;71.23;95767.56;5094415;28;20482;-86
2021/11/19 05:49:13;;;;;;;14.70;10.50;;;;;;;7.15;71.51;95778.69;5094752;28;20446;-85
2021/11/19 05:51:42;;;;;;;18.00;11.63;;;;;;;7.22;71.02;95769.56;5097140;28;20433;-84
2021/11/19 05:54:16;;;;;;;20.30;10.60;;;;;;;7.36;71.23;95777.47;5096823;28;20901;-84
2021/11/19 05:56:43;;;;;;;12.97;10.20;;;;;;;7.37;70.02;95773.06;5097396;28;20617;-85
2021/11/19 05:59:12;;;;;;;18.57;11.10;;;;;;;7.35;69.24;95777.53;5096800;28;21045;-85
2021/11/19 06:01:39;;;;;;;26.00;13.80;;;;;;;7.31;69.68;95771.66;5096649;28;20962;-85
2021/11/19 06:04:06;;;;;;;14.10;9.87;;;;;;;7.32;69.05;95775.13;5096893;28;20957;-86
2021/11/19 06:06:34;;;;;;;13.00;10.10;;;;;;;7.34;68.27;95771.47;5045246;28;20535;-84
2021/11/19 06:09:01;;;;;;;29.33;14.47;;;;;;;7.31;67.43;95779.50;5097579;28;20602;-84
2021/11/19 06:11:42;;;;;;;29.37;16.90;;;;;;;7.32;67.95;95775.97;5097428;28;20488;-88
2021/11/19 06:14:14;;;;;;;28.60;15.57;;;;;;;7.40;66.91;95786.78;5098532;28;20486;-88
2021/11/19 06:16:49;;;;;;;14.80;9.90;;;;;;;7.43;65.98;95784.00;5098229;28;20448;-87
2021/11/19 06:19:30;;;;;;;17.50;9.00;;;;;;;7.43;65.49;95780.53;5097846;28;20539;-91
2021/11/19 06:32:05;;;;;;;15.60;9.10;;;;;;;7.41;63.03;95796.31;5096609;28;20489;-87
2021/11/19 06:34:32;;;;;;;15.33;9.03;;;;;;;7.40;64.86;95786.78;5096822;28;20495;-87
2021/11/19 06:36:59;;;;;;;13.00;8.90;;;;;;;7.31;64.58;95786.50;5097318;28;20512;-85
2021/11/19 06:39:27;;;;;;;14.43;9.70;;;;;;;7.27;64.45;95793.66;5097821;28;20446;-89
2021/11/19 06:41:54;;;;;;;17.33;10.63;;;;;;;7.32;65.68;95783.78;5097249;28;20999;-88
2021/11/19 06:44:21;;;;;;;12.93;10.17;;;;;;;7.33;65.77;95782.00;5097674;28;20439;-87
2021/11/19 06:46:48;;;;;;;13.17;8.80;;;;;;;7.28;65.89;95784.06;5097250;28;20540;-88
2021/11/19 06:49:17;;;;;;;12.20;8.53;;;;;;;7.29;66.22;95786.56;5097239;28;20462;-89
2021/11/19 06:51:44;;;;;;;23.73;11.73;;;;;;;7.30;66.82;95784.81;5097170;28;20445;-89
2021/11/19 06:54:12;;;;;;;15.20;9.20;;;;;;;7.32;66.77;95791.63;5096774;28;20999;-89
2021/11/19 06:56:39;;;;;;;12.80;9.67;;;;;;;7.29;67.22;95802.25;5096831;28;20552;-87
2021/11/19 06:59:08;;;;;;;12.67;9.50;;;;;;;7.32;68.29;95780.34;5096942;28;20535;-87
2021/11/19 07:04:58;;;;;;;24.90;13.40;;;;;;;7.38;68.16;95780.81;5095762;28;20501;-87
2021/11/19 07:07:25;;;;;;;16.50;10.40;;;;;;;7.42;68.21;95779.69;5096687;28;20536;-87
2021/11/19 07:09:52;;;;;;;10.47;9.10;;;;;;;7.43;66.99;95781.38;5096527;28;20444;-87
2021/11/19 07:12:19;;;;;;;17.67;11.37;;;;;;;7.36;67.16;95776.63;5098607;28;20542;-88
2021/11/19 07:14:46;;;;;;;12.73;9.50;;;;;;;7.40;67.56;95778.13;5096508;28;20580;-87
2021/11/19 07:17:13;;;;;;;15.47;10.20;;;;;;;7.48;68.05;95775.88;5096339;28;20507;-89
2021/11/19 07:19:42;;;;;;;11.23;8.13;;;;;;;7.53;67.03;95786.09;5096175;28;20455;-87
2021/11/19 07:22:11;;;;;;;14.20;10.13;;;;;;;7.54;67.73;95770.34;5096746;28;20848;-87
2021/11/19 07:24:41;;;;;;;15.43;8.93;;;;;;;7.53;67.28;95780.88;5096872;28;20460;-88
2021/11/19 07:27:09;;;;;;;13.13;8.73;;;;;;;7.62;67.70;95785.53;5096312;28;20874;-88
2021/11/19 07:29:36;;;;;;;15.77;9.10;;;;;;;7.61;67.08;95789.09;5096328;28;20517;-87
2021/11/19 07:32:04;;;;;;;10.33;9.23;;;;;;;7.58;67.76;95782.28;5095885;28;20441;-87
2021/11/19 07:34:31;;;;;;;20.77;10.30;;;;;;;7.57;68.80;95792.81;5095980;28;20580;-87
2021/11/19 07:36:58;;;;;;;14.03;9.00;;;;;;;7.47;68.69;95800.31;5091869;28;21003;-88
2021/11/19 07:39:27;;;;;;;14.80;9.90;;;;;;;7.43;69.55;95789.22;5083697;28;20445;-88
2021/11/19 07:41:54;;;;;;;12.03;9.03;;;;;;;7.44;69.64;95785.69;5095888;28;20820;-88
2021/11/19 07:44:21;;;;;;;13.10;9.30;;;;;;;7.43;68.77;95786.59;5095813;28;20450;-89
2021/11/19 08:03:38;;;;;;;14.53;9.73;;;;;;;7.55;70.59;95799.91;5075109;28;20558;-88
2021/11/19 08:06:07;;;;;;;17.07;9.57;;;;;;;7.51;70.28;95787.94;5075378;28;20481;-86
2021/11/19 08:08:35;;;;;;;14.00;9.20;;;;;;;7.54;73.21;95791.22;5074792;28;20613;-87
2021/11/19 08:11:05;;;;;;;13.57;9.97;;;;;;;7.60;71.24;95803.91;5077875;28;20437;-88
2021/11/19 08:13:32;;;;;;;13.00;8.53;;;;;;;7.58;70.20;95808.41;5098232;28;20535;-87
2021/11/19 08:15:59;;;;;;;12.87;10.80;;;;;;;7.58;70.61;95797.09;5098746;28;20569;-86
2021/11/19 08:18:31;;;;;;;12.17;8.50;;;;;;;7.61;70.87;95795.16;5095663;28;20523;-86
2021/11/19 08:21:09;;;;;;;13.13;9.00;;;;;;;7.57;71.19;95788.44;5095700;28;20453;-86
2021/11/19 08:23:41;;;;;;;13.23;8.77;;;;;;;7.62;71.16;95793.38;5095650;28;20447;-88
2021/11/19 08:26:11;;;;;;;13.23;9.37;;;;;;;7.72;72.44;95791.91;5094833;28;20456;-86
2021/11/19 08:32:05;;;;;;;16.17;10.83;;;;;;;7.89;70.68;95793.53;5094961;28;20506;-87
2021/11/19 08:34:32;;;;;;;18.03;11.60;;;;;;;7.96;71.11;95787.81;5094735;28;20623;-86
2021/11/19 08:37:01;;;;;;;20.23;11.00;;;;;;;7.98;70.02;95793.81;5077662;28;20548;-88
2021/11/19 08:39:29;;;;;;;14.23;10.63;;;;;;;8.03;71.39;95794.34;5075500;28;20454;-87
2021/11/19 08:41:57;;;;;;;15.43;9.00;;;;;;;8.00;70.01;95788.47;5074271;28;20482;-87
2021/11/19 08:44:25;;;;;;;14.03;10.60;;;;;;;8.10;70.07;95797.47;5074310;28;21003;-86
2021/11/19 08:46:54;;;;;;;19.90;10.43;;;;;;;8.19;70.65;95788.22;5090098;28;20531;-87
2021/11/19 08:49:23;;;;;;;15.43;10.03;;;;;;;8.25;70.16;95790.44;5095404;28;20476;-87
2021/11/19 08:51:51;;;;;;;12.50;9.80;;;;;;;8.18;69.25;95789.16;5094395;28;20458;-86
2021/11/19 08:54:20;;;;;;;13.60;10.03;;;;;;;8.11;69.66;95793.06;5093840;28;20526;-86
2021/11/19 08:56:50;;;;;;;15.00;9.80;;;;;;;8.03;70.12;95786.50;5094561;28;20484;-84
2021/11/19 08:59:17;;;;;;;12.90;10.80;;;;;;;8.04;70.44;95788.19;5094700;28;20414;-89
2021/11/19 09:01:47;;;;;;;17.93;10.73;;;;;;;8.09;70.14;95777.47;5094952;28;20441;-89
2021/11/19 09:04:16;;;;;;;14.87;10.73;;;;;;;8.15;71.12;95784.13;5095501;28;20879;-88
2021/11/19 09:06:43;;;;;;;15.30;11.80;;;;;;;8.19;69.72;95783.00;5095458;28;20506;-88
2021/11/19 09:09:11;;;;;;;16.17;11.50;;;;;;;8.17;70.17;95772.63;5095026;28;20548;-88
2021/11/19 09:11:41;;;;;;;12.77;10.10;;;;;;;8.12;70.60;95771.22;5095037;28;20513;-88
2021/11/19 09:14:09;;;;;;;19.27;12.67;;;;;;;8.08;70.40;95763.53;5094729;28;20444;-88
2021/11/19 09:16:38;;;;;;;17.53;11.77;;;;;;;8.05;70.44;95765.50;5094842;28;20478;-88
2021/11/19 09:19:15;;;;;;;18.97;11.60;;;;;;;8.07;70.57;95761.88;5095212;28;20540;-88
2021/11/19 09:21:47;;;;;;;18.07;11.27;;;;;;;8.14;71.13;95762.34;5094852;28;20453;-88
2021/11/19 09:24:17;;;;;;;15.93;12.40;;;;;;;8.12;70.99;95755.56;5095007;28;20797;-88
2021/11/19 09:26:48;;;;;;;14.43;10.30;;;;;;;8.25;70.78;95751.22;5097985;28;20462;-88
2021/11/19 09:29:18;;;;;;;12.90;10.77;;;;;;;8.37;70.99;95743.47;5097630;28;20443;-88
2021/11/19 09:31:47;;;;;;;14.10;9.53;;;;;;;8.33;69.29;95733.28;5097841;28;20453;-88
2021/11/19 09:34:16;;;;;;;15.43;11.27;;;;;;;8.49;69.58;95731.44;5097894;28;20434;-88
2021/11/19 09:36:43;;;;;;;22.07;11.97;;;;;;;8.56;68.81;95717.03;5097003;28;20484;-87
2021/11/19 09:39:14;;;;;;;13.93;10.80;;;;;;;8.64;68.13;95719.97;5097792;28;20457;-88
2021/11/19 09:41:57;;;;;;;13.90;10.27;;;;;;;8.65;67.54;95729.50;5097626;28;20451;-88
2021/11/19 09:44:59;;;;;;;12.07;9.37;;;;;;;8.62;68.15;95731.47;5097714;28;20452;-88
2021/11/19 09:47:43;;;;;;;13.20;9.37;;;;;;;8.58;67.21;95725.59;5035404;28;20908;-87
2021/11/19 09:50:36;;;;;;;13.90;9.23;;;;;;;8.52;67.22;95722.53;5035071;28;20535;-87
2021/11/19 09:53:45;;;;;;;11.77;9.67;;;;;;;8.54;68.46;95716.28;4957150;29;20465;-87
2021/11/19 09:56:42;;;;;;;12.70;9.27;;;;;;;8.69;68.00;95715.31;4899518;29;20487;-87
2021/11/19 09:59:20;;;;;;;14.63;9.30;;;;;;;8.91;67.57;95712.13;4899426;29;20470;-87
2021/11/19 10:02:10;;;;;;;14.33;9.57;;;;;;;8.98;65.88;95708.19;4899987;29;20461;-88
2021/11/19 10:05:10;;;;;;;21.50;11.70;;;;;;;9.08;66.36;95708.41;4862076;29;20880;-89
2021/11/19 10:07:49;;;;;;;14.40;9.67;;;;;;;9.10;66.47;95698.69;4862594;29;20536;-88
2021/11/19 10:10:47;;;;;;;16.90;10.83;;;;;;;8.96;65.94;95694.38;4862449;29;20469;-88
2021/11/19 10:13:21;;;;;;;14.17;9.50;;;;;;;8.88;66.26;95688.78;4862395;29;20492;-88
2021/11/19 10:16:01;;;;;;;12.97;9.07;;;;;;;8.78;65.74;95686.88;4862368;29;20534;-88
2021/11/19 10:18:33;;;;;;;13.30;9.67;;;;;;;8.89;66.42;95685.22;4862359;29;20464;-89
2021/11/19 10:21:03;;;;;;;14.50;9.20;;;;;;;8.90;65.55;95675.59;4862742;29;20457;-89
2021/11/19 10:23:34;;;;;;;15.83;10.07;;;;;;;8.91;64.54;95677.25;4876261;29;20462;-89
2021/11/19 10:26:05;;;;;;;13.10;10.03;;;;;;;8.89;63.65;95684.38;4899563;29;20447;-88
2021/11/19 10:28:38;;;;;;;13.53;9.30;;;;;;;8.76;64.06;95671.28;4899666;29;20471;-87
2021/11/19 10:31:08;;;;;;;12.03;8.13;;;;;;;8.68;65.16;95666.53;4961194;28;20462;-89
2021/11/19 10:33:40;;;;;;;10.40;7.60;;;;;;;8.54;64.31;95650.88;5031648;28;21020;-88
2021/11/19 10:36:18;;;;;;;8.57;6.57;;;;;;;8.54;64.38;95648.28;5034398;28;20486;-88
2021/11/19 10:39:34;;;;;;;10.13;8.00;;;;;;;8.57;64.00;95629.75;5035161;28;20954;-89
2021/11/19 10:42:28;;;;;;;13.40;7.60;;;;;;;8.74;65.66;95638.28;4998559;28;20540;-87
2021/11/19 10:45:25;;;;;;;19.07;9.67;;;;;;;8.84;64.63;95637.56;5034615;28;20448;-89
2021/11/19 10:48:30;;;;;;;9.20;7.63;;;;;;;8.86;63.84;95637.47;5034890;28;20497;-89
2021/11/19 10:51:21;;;;;;;11.93;7.03;;;;;;;8.89;63.85;95632.03;5034890;28;20460;-88
2021/11/19 10:54:18;;;;;;;8.67;6.73;;;;;;;8.73;63.85;95636.63;5034619;28;20450;-88
2021/11/19 10:56:55;;;;;;;8.67;6.77;;;;;;;8.63;64.83;95638.97;4975616;28;20506;-88
2021/11/19 10:59:31;;;;;;;13.63;8.30;;;;;;;8.69;64.89;95639.44;4975824;28;20447;-89
2021/11/19 11:02:03;;;;;;;12.47;8.90;;;;;;;8.69;65.29;95636.81;4975867;28;20454;-90
2021/11/19 11:04:50;;;;;;;9.87;7.23;;;;;;;8.78;65.48;95639.75;4975680;28;20476;-88
2021/11/19 11:07:22;;;;;;;10.03;7.77;;;;;;;8.82;64.65;95630.78;4975750;28;20488;-88
2021/11/19 11:09:52;;;;;;;14.00;8.10;;;;;;;8.98;64.49;95634.06;4976838;28;20455;-88
2021/11/19 11:12:32;;;;;;;16.63;8.97;;;;;;;9.17;64.85;95620.56;4979061;28;20542;-88
2021/11/19 11:15:21;;;;;;;14.30;9.53;;;;;;;9.25;63.16;95621.75;4977837;28;20479;-89
2021/11/19 11:18:18;;;;;;;13.30;9.23;;;;;;;9.41;62.63;95620.69;4939642;29;20461;-89
2021/11/19 11:21:09;;;;;;;13.73;9.73;;;;;;;9.34;63.19;95620.25;4938006;29;20464;-89
2021/11/19 11:23:39;;;;;;;10.50;7.83;;;;;;;9.35;62.74;95618.47;4936903;29;20561;-89
2021/11/19 11:26:11;;;;;;;11.53;6.70;;;;;;;9.25;61.94;95605.16;4936753;29;20466;-88
2021/11/19 11:28:43;;;;;;;13.57;8.77;;;;;;;9.11;63.11;95600.03;4936673;29;20511;-89
2021/11/19 11:31:34;;;;;;;14.57;9.07;;;;;;;9.05;63.42;95596.06;4936531;29;20558;-89
2021/11/19 11:34:04;;;;;;;14.20;8.60;;;;;;;9.11;63.14;95600.03;4982311;28;20457;-90
2021/11/19 11:36:46;;;;;;;9.77;7.80;;;;;;;9.20;63.45;95602.84;5013519;28;20570;-88
2021/11/19 11:39:16;;;;;;;15.50;9.10;;;;;;;9.22;62.46;95598.34;5013646;28;20467;-88
2021/11/19 11:41:57;;;;;;;11.33;8.20;;;;;;;9.15;62.50;95591.88;5013690;28;20545;-88
2021/11/19 11:44:35;;;;;;;9.73;7.70;;;;;;;9.12;62.72;95597.31;5013337;28;20537;-89
2021/11/19 11:47:07;;;;;;;9.57;6.30;;;;;;;9.04;62.58;95583.91;5013099;28;20468;-88
2021/11/19 11:49:45;;;;;;;16.50;8.87;;;;;;;8.97;63.48;95590.50;5013685;28;20963;-88
2021/11/19 11:52:32;;;;;;;13.03;9.93;;;;;;;8.98;63.11;95595.63;5013392;28;20457;-88
2021/11/19 11:55:25;;;;;;;10.07;8.00;;;;;;;8.94;63.64;95591.53;5054489;28;20446;-88
2021/11/19 11:58:07;;;;;;;12.80;7.47;;;;;;;8.84;64.01;95595.72;5095371;28;20456;-87
2021/11/19 12:00:41;;;;;;;14.27;9.47;;;;;;;8.72;65.55;95583.44;5094918;28;20555;-87
2021/11/19 12:03:25;;;;;;;12.20;8.37;;;;;;;8.57;65.41;95590.53;5095067;28;20487;-87
2021/11/19 12:05:55;;;;;;;12.80;8.97;;;;;;;8.45;65.90;95585.25;5095084;28;20535;-88
2021/11/19 12:08:41;;;;;;;11.00;8.70;;;;;;;8.43;65.65;95593.22;5094904;28;20542;-87
2021/11/19 12:11:44;;;;;;;14.37;9.10;;;;;;;8.51;65.45;95593.53;5094927;28;20535;-89
2021/11/19 12:14:25;;;;;;;10.40;8.97;;;;;;;8.58;66.11;95583.50;5094783;28;20482;-88
2021/11/19 12:17:02;;;;;;;15.50;9.83;;;;;;;8.62;66.13;95571.91;5094686;28;20565;-88
2021/11/19 12:19:35;;;;;;;16.50;9.93;;;;;;;8.71;66.20;95594.84;5094790;28;20444;-88
2021/11/19 12:22:14;;;;;;;9.37;7.17;;;;;;;8.65;65.13;95577.75;5095331;28;20544;-87
2021/11/19 12:24:48;;;;;;;10.57;8.50;;;;;;;8.66;65.39;95566.34;5094964;28;20546;-88
2021/11/19 12:27:36;;;;;;;13.40;9.00;;;;;;;8.70;66.41;95572.25;5094975;28;20457;-88
2021/11/19 12:30:15;;;;;;;11.23;8.73;;;;;;;8.72;65.65;95575.59;5094884;28;20455;-89
2021/11/19 12:32:45;;;;;;;11.57;9.03;;;;;;;8.80;65.73;95570.69;5094644;28;20474;-87
2021/11/19 12:35:16;;;;;;;20.83;9.90;;;;;;;8.87;65.38;95560.63;5094500;28;20513;-87
2021/11/19 12:37:53;;;;;;;15.60;9.20;;;;;;;8.95;64.92;95564.41;5094417;28;20482;-88
2021/11/19 12:40:32;;;;;;;11.00;8.80;;;;;;;9.00;65.04;95561.50;5094426;28;20447;-87
2021/11/19 12:43:05;;;;;;;11.33;8.80;;;;;;;8.92;63.95;95563.78;5094385;28;20522;-87